Albuquerque, NM (87110)

4:45 AM MDT on September 02, 2015 (GMT -0600)
SWCP (Indian School & San Mateo NE) | | Change Station
CLOSE
Current Station
Personal Weather Station
Location: Albuquerque, NM
Elevation: 5213 ft
Nearby Weather Stations

Elev 5213 ft 35.10 °N, 106.59 °W | Updated 24 seconds ago

Scattered Clouds
Scattered Clouds
70.3 °F
Feels Like 77 °F
N
0.0
Wind Variable Wind from SE
Gusts 0.0 mph

Today
High -- | Low -- °F
--% Chance of Precip.
Yesterday
High -- | Low -- °F
Precip. -- in
6:39 AM 7:31 PM
Waning Gibbous, 81% visible
Pressure 29.93 in
Visibility 10.0 miles
Clouds Scattered Clouds 11000 ft
Heat Index 77 °F
Dew Point 45 °F
Humidity 41%
Rainfall 0.00 in
Snow Depth Not available.
UV 0 out of 12
Pollen 7.60 out of 12
Air Quality Not available.
Flu Activity Not available.
METAR KABQ 020952Z 14006KT 10SM SCT110 20/07 A3019 RMK AO2 SLP134 T02000067
Pressure 29.93 in
Visibility 10.0 miles
Clouds Scattered Clouds 11000 ft
Heat Index 77 °F
Dew Point 45 °F
Humidity 41%
Rainfall 0.00 in
Snow Depth Not available.
UV 0 out of 12
Pollen 7.60 out of 12
Air Quality Not available.
Flu Activity Not available.
METAR KABQ 020952Z 14006KT 10SM SCT110 20/07 A3019 RMK AO2 SLP134 T02000067

10-Day Weather Forecast

×

Almanac

Astronomy

Sep. 02, 2015 Rise Set
Actual Time
Civil Twilight
Nautical Twilight
Astronomical Twilight
Moon
Length of Visible Light
Length of Day
Tomorrow will be .
, % of the Moon is Illuminated

Today's Extremes

State Highs State Lows

Community

WunderPhotos

Upload Photos

1,851,734 photos uploaded!

WunderBlogs® & News

Nearby

Air Quality

  Air Quality AQ Index Pollutant
Not available.

Snow Depth

Station Depth Elevation

Earthquake Activity

City Distance Mag. Time & Date
Minimum magnitude displayed is 2.5.

Coastal Water Temperatures

Place Temperature

Stations

Nearby Weather Stations

Station Location Temp. Windchill Dew Point Humidity Wind Precip. Elev Updated Type